首页
METAR-TAF:

METAR-TAF

机场 :

Greer, 南卡罗来纳州, 美国

纬度: 34-53-02N, 经度: 082-13-15W, 海拔: 296米

当前天气观测

该预报发布于57分钟前的11:53 UTC
静风
温度 3°C
湿度 93%
气压 1025 hPa
能見度: 16.1公里
天空无云

METAR: KGSP 181153Z 00000KT 10SM CLR 03/02 A3028 RMK AO2 SLP256 T00280017 10056 20017 53009

时间: 07:50 (12:50 UTC)

预报

该预报发布于1小时和27分钟前的11:23 UTC
预报有效从18日的 12点(UTC)到 19日的 12点(UTC)
风速节,风向
能見度: 10公里
少量云层高于25000英尺
从 19日的 0300点(UTC)
风速节,风向
能見度: 9.7公里
散云层高于8000英尺
轻雾
从 19日的 0500点(UTC)
风速2节,风向多变
能見度: 8.0公里
多云层高于3500英尺
轻雾
从 19日的 0900点(UTC)
风速2节,风向多变
能見度: 3.2公里
多云层高于3000英尺
轻雾

TAF: KGSP 181123Z 1812/1912 00000KT P6SM FEW250 FM190300 00000KT 6SM BR SCT080 FM190500 VRB02KT 5SM BR BKN035 FM190900 VRB02KT 2SM BR BKN030

超过4000个机场的气象观测和天气预报(METAR&TAF报告)。

可查询的气象台以黄色和红色小点在地图上表示。

将鼠标移到小点上方,可查看气象台名称。

然后点击查看天气观测和预报。

如需切换地图:点击带黑十字的绿色按钮放大地图;点击带横线的绿色按钮缩小地图;或者点击绿色箭头查看邻近地区的地图。


METAR-TAF: